Terminal Aerodrome Forecast
Issued by NWS Blacksburg, VA

Current Version | Previous Version | Graphics & Text | Print | Product List | Glossary On
Versions: 1 2 3 4 5 6 7 8 9 10 11 12 13 14 15 16 17 18 19 20 21 22 23 24 25 26 27 28 29 30 31 32 33 34 35 36 37 38 39 40
377
FTUS41 KRNK 212333
TAFBLF
TAF
KBLF 212333Z 2200/2224 15007KT P6SM BKN150
     FM220200 16006KT P6SM VCSH BKN090
     FM220400 17004KT P6SM SCT040 OVC060
     FM220600 VRB03KT 4SM -RA BR OVC030
      TEMPO 2206/2210 2SM -RA OVC012
     FM221000 VRB03KT 2SM -RA BR OVC004
     FM222000 18005KT 4SM BR BKN010=

USA.gov is the U.S. government's official web portal to all federal, state and local government web resources and services.